createdAt,value
2019-03-31T00:00:47.280Z,8.34
2019-03-31T00:03:22.166Z,8.30
2019-03-31T00:05:58.398Z,8.16
2019-03-31T00:08:33.351Z,8.09
2019-03-31T00:11:07.244Z,8.10
2019-03-31T00:13:41.171Z,8.13
2019-03-31T00:16:16.441Z,8.16
2019-03-31T00:18:50.263Z,8.17
2019-03-31T00:21:24.597Z,8.18
2019-03-31T00:23:58.505Z,8.21
2019-03-31T00:26:32.886Z,8.27
2019-03-31T00:29:07.317Z,8.33
2019-03-31T00:31:41.154Z,8.36
2019-03-31T00:34:14.914Z,8.38
2019-03-31T00:36:48.749Z,8.33
2019-03-31T00:39:22.527Z,8.29
2019-03-31T00:41:56.372Z,8.24
2019-03-31T00:44:30.131Z,8.24
2019-03-31T00:47:04.052Z,8.22
2019-03-31T00:49:37.864Z,8.19
2019-03-31T00:52:11.720Z,8.09
2019-03-31T00:54:45.549Z,7.96
2019-03-31T00:57:19.555Z,7.85
2019-03-31T00:59:53.458Z,7.80
2019-03-31T01:02:30.886Z,7.79
2019-03-31T01:05:05.259Z,7.86
2019-03-31T01:07:39.529Z,7.81
2019-03-31T01:10:13.445Z,7.75
2019-03-31T01:12:47.606Z,7.75
2019-03-31T01:15:24.183Z,7.71
2019-03-31T01:17:58.369Z,7.67
2019-03-31T01:20:33.403Z,7.66
2019-03-31T01:23:07.485Z,7.60
2019-03-31T01:25:41.725Z,7.49
2019-03-31T01:28:16.688Z,7.58
2019-03-31T01:30:51.645Z,7.63
2019-03-31T01:33:26.660Z,7.63
2019-03-31T01:36:00.706Z,7.64
2019-03-31T01:38:35.751Z,7.63
2019-03-31T01:41:13.067Z,7.62
2019-03-31T01:43:47.198Z,7.59
2019-03-31T01:46:24.948Z,7.52
2019-03-31T01:49:24.610Z,7.52
2019-03-31T01:51:59.378Z,7.49
2019-03-31T01:54:40.255Z,7.48
2019-03-31T01:57:14.909Z,7.42
2019-03-31T01:59:52.874Z,7.33
2019-03-31T02:02:51.733Z,7.25
2019-03-31T02:05:26.240Z,7.06
2019-03-31T02:08:00.203Z,7.01
2019-03-31T02:10:34.199Z,6.99
2019-03-31T02:13:08.162Z,7.01
2019-03-31T02:15:42.605Z,7.06
2019-03-31T02:18:16.598Z,7.07
2019-03-31T02:20:52.412Z,7.09
2019-03-31T02:23:26.821Z,7.11
2019-03-31T02:26:01.311Z,7.17
2019-03-31T02:28:35.207Z,7.17
2019-03-31T02:31:09.571Z,7.12
2019-03-31T02:33:43.512Z,7.15
2019-03-31T02:36:17.545Z,7.17
2019-03-31T02:38:51.518Z,7.18
2019-03-31T02:41:25.939Z,7.21
2019-03-31T02:43:59.911Z,7.19
2019-03-31T02:46:35.346Z,7.14
2019-03-31T02:49:09.433Z,7.17
2019-03-31T02:51:43.408Z,7.09
2019-03-31T02:54:17.262Z,7.06
2019-03-31T02:56:51.270Z,7.06
2019-03-31T02:59:25.239Z,7.07
2019-03-31T03:01:59.217Z,7.09
2019-03-31T03:04:33.768Z,7.12
2019-03-31T03:07:07.770Z,7.08
2019-03-31T03:09:42.798Z,7.08
2019-03-31T03:12:16.664Z,7.10
2019-03-31T03:14:51.594Z,7.13
2019-03-31T03:17:25.663Z,7.17
2019-03-31T03:19:59.589Z,7.24
2019-03-31T03:22:35.377Z,7.31
2019-03-31T03:25:10.327Z,7.32
2019-03-31T03:27:44.235Z,7.36
2019-03-31T03:30:18.400Z,7.41
2019-03-31T03:33:13.246Z,7.40
2019-03-31T03:35:32.571Z,7.42
2019-03-31T03:38:07.575Z,7.43
2019-03-31T03:40:41.486Z,7.44
2019-03-31T03:43:15.510Z,7.41
2019-03-31T03:45:49.514Z,7.44
2019-03-31T03:48:23.604Z,7.47
2019-03-31T03:50:57.605Z,7.50
2019-03-31T03:53:31.440Z,7.50
2019-03-31T03:56:05.771Z,7.54
2019-03-31T03:58:39.729Z,7.51
2019-03-31T04:01:19.291Z,7.52
2019-03-31T04:03:53.250Z,7.51
2019-03-31T04:06:27.439Z,7.58
2019-03-31T04:09:01.281Z,7.61
2019-03-31T04:11:36.311Z,7.61
2019-03-31T04:14:10.190Z,7.57
2019-03-31T04:16:43.950Z,7.62
2019-03-31T04:19:17.796Z,7.65
2019-03-31T04:21:51.619Z,7.68
2019-03-31T04:24:25.380Z,7.72
2019-03-31T04:26:59.335Z,7.73
2019-03-31T04:29:33.113Z,7.73
2019-03-31T04:32:06.993Z,7.74
2019-03-31T04:34:40.859Z,7.78
2019-03-31T04:37:14.693Z,7.79
2019-03-31T04:39:48.666Z,7.86
2019-03-31T04:42:22.479Z,7.88
2019-03-31T04:44:58.570Z,7.93
2019-03-31T04:47:32.448Z,8.00
2019-03-31T04:50:07.598Z,8.06
2019-03-31T04:52:42.700Z,8.14
2019-03-31T04:55:16.569Z,8.21
2019-03-31T04:57:50.512Z,8.27
2019-03-31T05:00:24.511Z,8.31
2019-03-31T05:02:58.493Z,8.37
2019-03-31T05:05:32.595Z,8.42
2019-03-31T05:08:06.554Z,8.49
2019-03-31T05:10:40.512Z,8.54
2019-03-31T05:13:15.808Z,8.56
2019-03-31T05:15:49.672Z,8.63
2019-03-31T05:18:23.530Z,8.65
2019-03-31T05:20:57.413Z,8.69
2019-03-31T05:23:31.328Z,8.72
2019-03-31T05:26:06.071Z,8.76
2019-03-31T05:28:39.776Z,8.79
2019-03-31T05:31:13.487Z,8.80
2019-03-31T05:33:50.780Z,8.88
2019-03-31T05:36:24.670Z,8.94
2019-03-31T05:38:58.459Z,8.97
2019-03-31T05:41:32.558Z,9.08
2019-03-31T05:44:06.523Z,9.13
2019-03-31T05:46:40.440Z,9.17
2019-03-31T05:49:14.371Z,9.22
2019-03-31T05:51:48.355Z,9.28
2019-03-31T05:54:22.222Z,9.28
2019-03-31T05:56:56.295Z,9.33
2019-03-31T05:59:30.183Z,9.36
2019-03-31T06:02:04.038Z,9.41
2019-03-31T06:04:38.967Z,9.44
2019-03-31T06:07:12.953Z,9.47
2019-03-31T06:09:47.192Z,9.51
2019-03-31T06:12:21.342Z,9.52
2019-03-31T06:14:55.364Z,9.59
2019-03-31T06:17:29.067Z,9.65
2019-03-31T06:20:03.146Z,9.65
2019-03-31T06:22:36.940Z,9.72
2019-03-31T06:25:10.635Z,9.74
2019-03-31T06:27:44.423Z,9.78
2019-03-31T06:30:18.523Z,9.82
2019-03-31T06:32:55.350Z,9.86
2019-03-31T06:35:27.684Z,10.00
2019-03-31T06:38:01.589Z,10.03
2019-03-31T06:40:36.925Z,10.21
2019-03-31T06:43:10.730Z,10.26
2019-03-31T06:45:44.492Z,10.25
2019-03-31T06:48:18.348Z,10.33
2019-03-31T06:50:52.037Z,10.89
2019-03-31T06:53:25.807Z,11.20
2019-03-31T06:55:59.519Z,11.32
2019-03-31T06:58:33.820Z,11.63
2019-03-31T07:01:07.673Z,11.86
2019-03-31T07:03:41.437Z,11.95
2019-03-31T07:06:15.319Z,11.88
2019-03-31T07:08:49.155Z,11.89
2019-03-31T07:11:22.814Z,12.12
2019-03-31T07:13:56.519Z,12.44
2019-03-31T07:16:30.299Z,12.64
2019-03-31T07:19:04.069Z,12.78
2019-03-31T07:21:37.676Z,13.00
2019-03-31T07:24:11.354Z,13.08
2019-03-31T07:26:44.983Z,13.20
2019-03-31T07:29:18.679Z,13.31
2019-03-31T07:31:52.492Z,13.44
2019-03-31T07:34:26.294Z,13.54
2019-03-31T07:37:00.009Z,13.66
2019-03-31T07:39:33.901Z,13.83
2019-03-31T07:42:08.460Z,13.93
2019-03-31T07:44:42.262Z,13.95
2019-03-31T07:47:18.594Z,14.09
2019-03-31T07:50:04.026Z,14.14
2019-03-31T07:52:38.472Z,14.40
2019-03-31T07:55:12.257Z,14.51
2019-03-31T07:57:46.027Z,14.41
2019-03-31T08:00:21.358Z,14.68
2019-03-31T08:02:55.044Z,14.74
2019-03-31T08:05:33.253Z,14.70
2019-03-31T08:08:04.141Z,14.97
2019-03-31T08:10:38.846Z,15.00
2019-03-31T08:13:12.517Z,15.18
2019-03-31T08:15:46.243Z,15.23
2019-03-31T08:18:19.984Z,15.12
2019-03-31T08:20:53.769Z,15.24
2019-03-31T08:23:27.531Z,15.11
2019-03-31T08:26:01.216Z,15.16
2019-03-31T08:28:34.995Z,14.78
2019-03-31T08:31:08.815Z,15.03
2019-03-31T08:33:42.606Z,15.16
2019-03-31T08:36:16.292Z,15.28
2019-03-31T08:38:54.489Z,15.34
2019-03-31T08:41:28.560Z,15.37
2019-03-31T08:44:02.139Z,15.40
2019-03-31T08:46:36.470Z,15.42
2019-03-31T08:49:10.200Z,15.52
2019-03-31T08:51:43.883Z,15.28
2019-03-31T08:54:17.550Z,15.01
2019-03-31T08:56:51.340Z,15.17
2019-03-31T08:59:25.133Z,15.41
2019-03-31T09:01:58.959Z,15.54
2019-03-31T09:04:32.773Z,15.34
2019-03-31T09:07:06.469Z,15.58
2019-03-31T09:09:40.137Z,15.65
2019-03-31T09:12:18.373Z,15.56
2019-03-31T09:14:52.146Z,15.35
2019-03-31T09:17:25.794Z,15.03
2019-03-31T09:19:59.464Z,14.80
2019-03-31T09:22:33.179Z,14.73
2019-03-31T09:25:07.031Z,14.52
2019-03-31T09:27:40.723Z,14.25
2019-03-31T09:30:16.249Z,14.56
2019-03-31T09:32:50.031Z,14.24
2019-03-31T09:35:23.877Z,14.58
2019-03-31T09:37:57.808Z,14.57
2019-03-31T09:40:31.426Z,14.68
2019-03-31T09:43:05.203Z,14.49
2019-03-31T09:45:38.791Z,14.33
2019-03-31T09:48:13.079Z,14.16
2019-03-31T09:50:46.838Z,14.19
2019-03-31T09:53:22.212Z,14.37
2019-03-31T09:55:55.949Z,14.52
2019-03-31T09:58:31.311Z,14.37
2019-03-31T10:01:08.007Z,14.37
2019-03-31T10:03:41.360Z,14.18
2019-03-31T10:06:29.266Z,14.12
2019-03-31T10:08:50.494Z,13.98
2019-03-31T10:11:24.223Z,13.99
2019-03-31T10:13:57.903Z,14.15
2019-03-31T10:16:32.019Z,14.23
2019-03-31T10:19:05.778Z,14.47
2019-03-31T10:21:39.400Z,14.62
2019-03-31T10:24:13.033Z,14.78
2019-03-31T10:26:46.739Z,14.54
2019-03-31T10:29:20.380Z,14.42
2019-03-31T10:31:55.040Z,14.34
2019-03-31T10:34:30.203Z,14.29
2019-03-31T10:37:03.957Z,14.27
2019-03-31T10:39:37.715Z,14.04
2019-03-31T10:42:11.357Z,14.05
2019-03-31T10:44:45.045Z,14.16
2019-03-31T10:47:18.767Z,14.11
2019-03-31T10:49:52.401Z,14.28
2019-03-31T10:52:26.017Z,14.55
2019-03-31T10:54:59.691Z,14.83
2019-03-31T10:57:33.280Z,15.00
2019-03-31T11:00:07.573Z,14.60
2019-03-31T11:02:41.317Z,13.90
2019-03-31T11:05:15.039Z,14.07
2019-03-31T11:07:48.703Z,14.06
2019-03-31T11:10:22.404Z,13.70
2019-03-31T11:12:56.133Z,13.83
2019-03-31T11:15:29.821Z,14.00
2019-03-31T11:18:03.405Z,14.10
2019-03-31T11:20:37.165Z,14.23
2019-03-31T11:23:18.912Z,14.18
2019-03-31T11:25:52.692Z,14.14
2019-03-31T11:28:27.128Z,14.11
2019-03-31T11:31:01.185Z,14.17
2019-03-31T11:33:34.833Z,13.96
2019-03-31T11:36:08.412Z,13.66
2019-03-31T11:38:41.989Z,13.64
2019-03-31T11:41:15.651Z,13.57
2019-03-31T11:43:49.205Z,13.49
2019-03-31T11:46:22.875Z,13.65
2019-03-31T11:48:56.508Z,13.64
2019-03-31T11:51:30.479Z,13.54
2019-03-31T11:54:04.180Z,13.41
2019-03-31T11:56:38.811Z,13.43
2019-03-31T11:59:12.375Z,13.46
2019-03-31T12:01:53.663Z,12.89
2019-03-31T12:04:28.677Z,13.07
2019-03-31T12:07:02.401Z,13.15
2019-03-31T12:09:37.250Z,13.17
2019-03-31T12:12:10.888Z,13.22
2019-03-31T12:14:44.452Z,13.23
2019-03-31T12:17:18.004Z,13.27
2019-03-31T12:19:51.651Z,13.23
2019-03-31T12:22:25.269Z,13.24
2019-03-31T12:24:58.920Z,13.19
2019-03-31T12:27:32.594Z,13.29
2019-03-31T12:30:08.721Z,13.28
2019-03-31T12:32:42.394Z,13.25
2019-03-31T12:35:15.971Z,13.18
2019-03-31T12:37:49.668Z,13.37
2019-03-31T12:40:37.035Z,13.41
2019-03-31T12:43:10.755Z,13.10
2019-03-31T12:45:48.735Z,13.16
2019-03-31T12:48:22.529Z,13.05
2019-03-31T12:50:58.103Z,13.10
2019-03-31T12:53:31.988Z,13.02
2019-03-31T12:56:05.684Z,13.04
2019-03-31T12:58:39.527Z,12.71
2019-03-31T13:01:13.283Z,12.68
2019-03-31T13:03:47.013Z,12.27
2019-03-31T13:06:20.780Z,12.10
2019-03-31T13:08:55.603Z,12.26
2019-03-31T13:11:29.452Z,12.26
2019-03-31T13:14:03.755Z,12.33
2019-03-31T13:16:38.601Z,12.42
2019-03-31T13:19:12.577Z,12.40
2019-03-31T13:21:46.534Z,12.56
2019-03-31T13:24:20.455Z,12.43
2019-03-31T13:26:54.411Z,12.42
2019-03-31T13:29:28.422Z,12.20
2019-03-31T13:32:02.394Z,12.26
2019-03-31T13:34:36.420Z,12.26
2019-03-31T13:37:10.328Z,12.23
2019-03-31T13:39:44.010Z,12.22
2019-03-31T13:42:17.689Z,12.21
2019-03-31T13:44:51.492Z,12.28
2019-03-31T13:47:25.173Z,12.25
2019-03-31T13:49:58.842Z,12.19
2019-03-31T13:52:32.512Z,12.14
2019-03-31T13:55:06.461Z,12.18
2019-03-31T13:57:42.253Z,12.13
2019-03-31T14:00:25.025Z,12.01
2019-03-31T14:02:55.815Z,12.18
2019-03-31T14:05:29.482Z,12.12
2019-03-31T14:08:24.672Z,12.10
2019-03-31T14:10:45.765Z,12.18
2019-03-31T14:13:19.563Z,12.25
2019-03-31T14:15:53.212Z,12.21
2019-03-31T14:18:26.771Z,12.15
2019-03-31T14:21:00.330Z,12.05
2019-03-31T14:23:33.906Z,11.98
2019-03-31T14:26:07.469Z,11.95
2019-03-31T14:28:41.265Z,12.14
2019-03-31T14:31:22.965Z,12.22
2019-03-31T14:33:58.907Z,12.24
2019-03-31T14:36:34.606Z,12.33
2019-03-31T14:39:10.707Z,12.44
2019-03-31T14:41:44.411Z,12.44
2019-03-31T14:44:17.994Z,12.49
2019-03-31T14:46:51.781Z,12.48
2019-03-31T14:49:26.028Z,12.56
2019-03-31T14:52:01.482Z,12.54
2019-03-31T14:54:35.291Z,12.63
2019-03-31T14:57:08.902Z,12.66
2019-03-31T14:59:42.488Z,12.72
2019-03-31T15:02:16.173Z,12.69
2019-03-31T15:04:50.219Z,12.64
2019-03-31T15:07:25.567Z,12.63
2019-03-31T15:10:01.386Z,12.66
2019-03-31T15:12:40.114Z,12.61
2019-03-31T15:15:15.400Z,12.57
2019-03-31T15:17:48.983Z,12.57
2019-03-31T15:20:22.751Z,12.63
2019-03-31T15:22:56.478Z,13.02
2019-03-31T15:25:30.212Z,13.03
2019-03-31T15:28:04.143Z,12.75
2019-03-31T15:30:37.877Z,12.65
2019-03-31T15:33:11.722Z,12.49
2019-03-31T15:35:45.407Z,12.48
2019-03-31T15:38:18.997Z,12.49
2019-03-31T15:40:52.971Z,12.45
2019-03-31T15:43:26.676Z,12.48
2019-03-31T15:46:00.420Z,12.45
2019-03-31T15:48:34.160Z,12.38
2019-03-31T15:51:15.439Z,12.24
2019-03-31T15:53:49.110Z,12.25
2019-03-31T15:56:23.864Z,12.21
2019-03-31T15:58:57.540Z,12.14
2019-03-31T16:01:31.166Z,12.07
2019-03-31T16:04:04.870Z,12.10
2019-03-31T16:06:39.600Z,12.00
2019-03-31T16:09:23.349Z,12.01
2019-03-31T16:11:53.616Z,12.02
2019-03-31T16:14:21.583Z,11.96
2019-03-31T16:16:54.487Z,11.90
2019-03-31T16:19:27.326Z,11.82
2019-03-31T16:22:00.139Z,11.84
2019-03-31T16:24:39.077Z,11.82
2019-03-31T16:27:11.919Z,11.78
2019-03-31T16:29:44.952Z,11.77
2019-03-31T16:32:17.855Z,11.70
2019-03-31T16:34:50.792Z,11.69
2019-03-31T16:37:23.618Z,11.74
2019-03-31T16:39:56.450Z,11.71
2019-03-31T16:42:29.273Z,11.62
2019-03-31T16:45:03.757Z,11.61
2019-03-31T16:47:36.654Z,11.57
2019-03-31T16:50:09.577Z,11.57
2019-03-31T16:52:42.392Z,11.42
2019-03-31T16:55:15.153Z,11.43
2019-03-31T16:57:47.897Z,11.24
2019-03-31T17:00:20.777Z,11.08
2019-03-31T17:02:53.594Z,11.15
2019-03-31T17:05:26.429Z,11.10
2019-03-31T17:07:59.622Z,10.92
2019-03-31T17:10:32.561Z,10.90
2019-03-31T17:13:05.291Z,10.80
2019-03-31T17:15:38.081Z,10.70
2019-03-31T17:18:10.918Z,10.66
2019-03-31T17:20:43.772Z,10.61
2019-03-31T17:23:16.532Z,10.56
2019-03-31T17:25:49.406Z,10.61
2019-03-31T17:28:22.338Z,10.56
2019-03-31T17:30:55.192Z,10.51
2019-03-31T17:33:30.277Z,10.42
2019-03-31T17:36:02.423Z,10.41
2019-03-31T17:38:35.327Z,10.37
2019-03-31T17:41:08.227Z,10.26
2019-03-31T17:43:41.063Z,10.24
2019-03-31T17:46:13.900Z,10.15
2019-03-31T17:48:46.645Z,10.20
2019-03-31T17:51:19.493Z,10.19
2019-03-31T17:53:52.318Z,10.12
2019-03-31T17:56:25.653Z,10.09
2019-03-31T17:58:58.550Z,10.03
2019-03-31T18:01:31.534Z,9.93
2019-03-31T18:04:04.335Z,9.84
2019-03-31T18:06:37.253Z,9.76
2019-03-31T18:09:10.655Z,9.67
2019-03-31T18:11:43.439Z,9.62
2019-03-31T18:14:16.207Z,9.53
2019-03-31T18:16:49.058Z,9.41
2019-03-31T18:19:24.540Z,9.42
2019-03-31T18:21:58.067Z,9.33
2019-03-31T18:24:31.139Z,9.17
2019-03-31T18:27:05.204Z,9.14
2019-03-31T18:29:39.731Z,9.07
2019-03-31T18:32:12.763Z,8.98
2019-03-31T18:34:45.677Z,8.88
2019-03-31T18:37:18.552Z,8.76
2019-03-31T18:39:51.449Z,8.74
2019-03-31T18:42:24.275Z,8.62
2019-03-31T18:44:57.228Z,8.62
2019-03-31T18:47:30.073Z,8.59
2019-03-31T18:50:02.950Z,8.62
2019-03-31T18:52:35.881Z,8.57
2019-03-31T18:55:30.206Z,8.52
2019-03-31T18:58:31.334Z,8.45
2019-03-31T19:01:21.721Z,8.44
2019-03-31T19:04:13.336Z,8.28
2019-03-31T19:07:18.090Z,8.30
2019-03-31T19:10:02.376Z,8.19
2019-03-31T19:12:50.537Z,8.22
2019-03-31T19:15:37.012Z,8.15
2019-03-31T19:18:21.108Z,8.06
2019-03-31T19:21:31.059Z,8.02
2019-03-31T19:24:38.831Z,8.04
2019-03-31T19:27:41.188Z,7.84
2019-03-31T19:30:45.418Z,7.66
2019-03-31T19:33:29.114Z,7.59
2019-03-31T19:36:23.824Z,7.56
2019-03-31T19:39:15.587Z,7.33
2019-03-31T19:42:01.634Z,7.20
2019-03-31T19:44:53.289Z,7.08
2019-03-31T19:47:44.911Z,7.10
2019-03-31T19:50:49.787Z,7.11
2019-03-31T19:53:41.525Z,7.07
2019-03-31T19:56:31.508Z,7.02
2019-03-31T19:59:21.957Z,6.97
2019-03-31T20:02:17.111Z,6.96
2019-03-31T20:05:02.225Z,6.93
2019-03-31T20:07:53.044Z,6.86
2019-03-31T20:10:43.745Z,6.80
2019-03-31T20:13:44.687Z,6.78
2019-03-31T20:16:35.064Z,6.71
2019-03-31T20:19:27.592Z,6.62
2019-03-31T20:22:11.365Z,6.61
2019-03-31T20:25:06.232Z,6.69
2019-03-31T20:28:07.116Z,6.52
2019-03-31T20:30:46.681Z,6.57
2019-03-31T20:33:44.174Z,6.53
2019-03-31T20:36:48.064Z,6.58
2019-03-31T20:39:56.437Z,6.62
2019-03-31T20:42:41.102Z,6.46
2019-03-31T20:45:14.008Z,6.41
2019-03-31T20:47:48.113Z,6.41
2019-03-31T20:50:24.942Z,6.30
2019-03-31T20:52:57.854Z,6.35
2019-03-31T20:55:30.661Z,6.39
2019-03-31T20:58:03.745Z,6.26
2019-03-31T21:00:36.557Z,6.28
2019-03-31T21:03:09.494Z,6.29
2019-03-31T21:05:42.602Z,6.21
2019-03-31T21:08:15.524Z,6.14
2019-03-31T21:10:48.402Z,6.11
2019-03-31T21:13:22.387Z,5.93
2019-03-31T21:15:55.639Z,5.91
2019-03-31T21:18:28.468Z,5.99
2019-03-31T21:21:01.323Z,5.96
2019-03-31T21:23:34.601Z,5.94
2019-03-31T21:26:07.494Z,5.96
2019-03-31T21:28:41.533Z,5.90
2019-03-31T21:31:14.710Z,5.87
2019-03-31T21:33:47.669Z,5.93
2019-03-31T21:36:20.553Z,5.87
2019-03-31T21:38:53.501Z,5.91
2019-03-31T21:41:27.338Z,5.94
2019-03-31T21:44:00.218Z,5.83
2019-03-31T21:46:32.961Z,5.71
2019-03-31T21:49:05.831Z,5.67
2019-03-31T21:51:38.719Z,5.55
2019-03-31T21:54:12.599Z,5.53
2019-03-31T21:56:45.475Z,5.62
2019-03-31T21:59:18.280Z,5.72
2019-03-31T22:01:51.008Z,5.76
2019-03-31T22:04:23.912Z,5.78
2019-03-31T22:06:56.793Z,5.69
2019-03-31T22:09:29.612Z,5.75
2019-03-31T22:12:02.334Z,5.70
2019-03-31T22:14:36.542Z,5.66
2019-03-31T22:17:09.257Z,5.64
2019-03-31T22:19:42.001Z,5.61
2019-03-31T22:22:14.819Z,5.63
2019-03-31T22:24:48.730Z,5.51
2019-03-31T22:27:21.594Z,5.52
2019-03-31T22:29:54.636Z,5.55
2019-03-31T22:32:28.524Z,5.53
2019-03-31T22:35:01.374Z,5.53
2019-03-31T22:37:34.361Z,5.51
2019-03-31T22:40:07.340Z,5.51
2019-03-31T22:42:40.202Z,5.41
2019-03-31T22:45:14.449Z,5.36
2019-03-31T22:47:47.336Z,5.37
2019-03-31T22:50:20.549Z,5.32
2019-03-31T22:52:54.353Z,5.30
2019-03-31T22:55:27.165Z,5.24
2019-03-31T22:58:00.027Z,5.19
2019-03-31T23:00:32.835Z,5.17
2019-03-31T23:03:05.697Z,5.17
2019-03-31T23:05:38.528Z,5.17
2019-03-31T23:08:11.395Z,5.12
2019-03-31T23:10:44.618Z,5.10
2019-03-31T23:13:17.342Z,5.12
2019-03-31T23:15:50.260Z,5.08
2019-03-31T23:18:23.144Z,5.02
2019-03-31T23:20:56.963Z,4.93
2019-03-31T23:23:30.114Z,4.96
2019-03-31T23:26:02.962Z,4.99
2019-03-31T23:28:37.519Z,5.03
2019-03-31T23:31:10.257Z,5.02
2019-03-31T23:33:43.016Z,4.96
2019-03-31T23:36:15.780Z,4.88
2019-03-31T23:38:48.828Z,4.90
2019-03-31T23:41:21.598Z,4.87
2019-03-31T23:43:54.404Z,4.82
2019-03-31T23:46:27.938Z,4.89
2019-03-31T23:49:00.740Z,4.91
2019-03-31T23:51:33.592Z,4.83
2019-03-31T23:54:06.426Z,4.83
2019-03-31T23:56:40.255Z,4.85
2019-03-31T23:59:13.058Z,4.87
